sensor_id;sensor_type;location;lat;lon;timestamp;temperature;humidity
73780;SHT30;62093;37.614;15.072;2022-07-23T00:00:33;25.56;52.71
73780;SHT30;62093;37.614;15.072;2022-07-23T00:02:59;25.57;52.72
73780;SHT30;62093;37.614;15.072;2022-07-23T00:05:24;25.57;52.74
73780;SHT30;62093;37.614;15.072;2022-07-23T00:07:50;25.56;52.77
73780;SHT30;62093;37.614;15.072;2022-07-23T00:10:16;25.56;52.76
73780;SHT30;62093;37.614;15.072;2022-07-23T00:12:42;25.54;52.78
73780;SHT30;62093;37.614;15.072;2022-07-23T00:15:09;25.57;52.82
73780;SHT30;62093;37.614;15.072;2022-07-23T00:17:35;25.54;52.82
73780;SHT30;62093;37.614;15.072;2022-07-23T00:20:01;25.54;52.85
73780;SHT30;62093;37.614;15.072;2022-07-23T00:22:27;25.54;52.81
73780;SHT30;62093;37.614;15.072;2022-07-23T00:24:55;25.54;52.81
73780;SHT30;62093;37.614;15.072;2022-07-23T00:27:21;25.53;52.80
73780;SHT30;62093;37.614;15.072;2022-07-23T00:29:47;25.53;52.80
73780;SHT30;62093;37.614;15.072;2022-07-23T00:32:13;25.53;52.85
73780;SHT30;62093;37.614;15.072;2022-07-23T00:34:39;25.53;52.87
73780;SHT30;62093;37.614;15.072;2022-07-23T00:37:04;25.51;52.85
73780;SHT30;62093;37.614;15.072;2022-07-23T00:39:30;25.51;52.89
73780;SHT30;62093;37.614;15.072;2022-07-23T00:41:56;25.51;52.84
73780;SHT30;62093;37.614;15.072;2022-07-23T00:44:27;25.49;52.86
73780;SHT30;62093;37.614;15.072;2022-07-23T00:46:56;25.50;52.87
73780;SHT30;62093;37.614;15.072;2022-07-23T00:49:24;25.50;52.91
73780;SHT30;62093;37.614;15.072;2022-07-23T00:51:50;25.53;52.88
73780;SHT30;62093;37.614;15.072;2022-07-23T00:54:17;25.49;52.89
73780;SHT30;62093;37.614;15.072;2022-07-23T00:56:45;25.47;52.89
73780;SHT30;62093;37.614;15.072;2022-07-23T00:59:12;25.49;52.94
73780;SHT30;62093;37.614;15.072;2022-07-23T01:01:39;25.50;52.95
73780;SHT30;62093;37.614;15.072;2022-07-23T01:04:05;25.49;52.89
73780;SHT30;62093;37.614;15.072;2022-07-23T01:06:35;25.50;52.94
73780;SHT30;62093;37.614;15.072;2022-07-23T01:09:03;25.49;52.92
73780;SHT30;62093;37.614;15.072;2022-07-23T01:11:30;25.49;52.96
73780;SHT30;62093;37.614;15.072;2022-07-23T01:16:42;25.51;52.91
73780;SHT30;62093;37.614;15.072;2022-07-23T01:19:09;25.50;52.97
73780;SHT30;62093;37.614;15.072;2022-07-23T01:21:41;25.47;52.93
73780;SHT30;62093;37.614;15.072;2022-07-23T01:24:08;25.49;52.91
73780;SHT30;62093;37.614;15.072;2022-07-23T01:26:38;25.46;52.91
73780;SHT30;62093;37.614;15.072;2022-07-23T01:29:05;25.46;52.92
73780;SHT30;62093;37.614;15.072;2022-07-23T01:31:31;25.47;52.75
73780;SHT30;62093;37.614;15.072;2022-07-23T01:33:57;25.49;52.74
73780;SHT30;62093;37.614;15.072;2022-07-23T01:36:23;25.49;52.61
73780;SHT30;62093;37.614;15.072;2022-07-23T01:38:50;25.47;52.53
73780;SHT30;62093;37.614;15.072;2022-07-23T01:41:16;25.47;52.63
73780;SHT30;62093;37.614;15.072;2022-07-23T01:43:43;25.46;52.65
73780;SHT30;62093;37.614;15.072;2022-07-23T01:46:09;25.49;52.56
73780;SHT30;62093;37.614;15.072;2022-07-23T01:48:41;25.49;52.56
73780;SHT30;62093;37.614;15.072;2022-07-23T01:51:42;25.47;52.65
73780;SHT30;62093;37.614;15.072;2022-07-23T01:54:32;25.46;52.54
73780;SHT30;62093;37.614;15.072;2022-07-23T01:56:59;25.47;52.59
73780;SHT30;62093;37.614;15.072;2022-07-23T01:59:26;25.46;52.46
73780;SHT30;62093;37.614;15.072;2022-07-23T02:01:53;25.47;52.60
73780;SHT30;62093;37.614;15.072;2022-07-23T02:04:23;25.46;52.60
73780;SHT30;62093;37.614;15.072;2022-07-23T02:06:51;25.47;52.42
73780;SHT30;62093;37.614;15.072;2022-07-23T02:09:17;25.49;52.53
73780;SHT30;62093;37.614;15.072;2022-07-23T02:11:43;25.46;52.59
73780;SHT30;62093;37.614;15.072;2022-07-23T02:14:09;25.47;52.57
73780;SHT30;62093;37.614;15.072;2022-07-23T02:16:35;25.46;52.59
73780;SHT30;62093;37.614;15.072;2022-07-23T02:19:02;25.46;52.61
73780;SHT30;62093;37.614;15.072;2022-07-23T02:21:28;25.45;52.47
73780;SHT30;62093;37.614;15.072;2022-07-23T02:23:54;25.43;52.56
73780;SHT30;62093;37.614;15.072;2022-07-23T02:26:20;25.42;52.44
73780;SHT30;62093;37.614;15.072;2022-07-23T02:28:47;25.43;52.45
73780;SHT30;62093;37.614;15.072;2022-07-23T02:31:13;25.43;52.50
73780;SHT30;62093;37.614;15.072;2022-07-23T02:33:39;25.42;52.37
73780;SHT30;62093;37.614;15.072;2022-07-23T02:36:05;25.42;52.47
73780;SHT30;62093;37.614;15.072;2022-07-23T02:38:31;25.42;52.58
73780;SHT30;62093;37.614;15.072;2022-07-23T02:40:57;25.43;52.45
73780;SHT30;62093;37.614;15.072;2022-07-23T02:43:23;25.45;52.48
73780;SHT30;62093;37.614;15.072;2022-07-23T02:45:49;25.42;52.50
73780;SHT30;62093;37.614;15.072;2022-07-23T02:48:15;25.40;52.43
73780;SHT30;62093;37.614;15.072;2022-07-23T02:50:43;25.43;52.42
73780;SHT30;62093;37.614;15.072;2022-07-23T02:53:12;25.42;52.51
73780;SHT30;62093;37.614;15.072;2022-07-23T02:55:39;25.42;52.33
73780;SHT30;62093;37.614;15.072;2022-07-23T02:58:05;25.40;52.40
73780;SHT30;62093;37.614;15.072;2022-07-23T03:00:31;25.39;52.36
73780;SHT30;62093;37.614;15.072;2022-07-23T03:02:57;25.39;52.51
73780;SHT30;62093;37.614;15.072;2022-07-23T03:05:23;25.40;52.33
73780;SHT30;62093;37.614;15.072;2022-07-23T03:07:49;25.38;52.35
73780;SHT30;62093;37.614;15.072;2022-07-23T03:10:15;25.39;52.47
73780;SHT30;62093;37.614;15.072;2022-07-23T03:12:43;25.40;52.26
73780;SHT30;62093;37.614;15.072;2022-07-23T03:15:09;25.38;52.36
73780;SHT30;62093;37.614;15.072;2022-07-23T03:17:35;25.39;52.29
73780;SHT30;62093;37.614;15.072;2022-07-23T03:20:02;25.36;52.24
73780;SHT30;62093;37.614;15.072;2022-07-23T03:22:28;25.36;52.36
73780;SHT30;62093;37.614;15.072;2022-07-23T03:24:54;25.38;52.33
73780;SHT30;62093;37.614;15.072;2022-07-23T03:27:23;25.38;52.40
73780;SHT30;62093;37.614;15.072;2022-07-23T03:29:51;25.36;52.42
73780;SHT30;62093;37.614;15.072;2022-07-23T03:32:17;25.33;52.21
73780;SHT30;62093;37.614;15.072;2022-07-23T03:34:43;25.35;52.31
73780;SHT30;62093;37.614;15.072;2022-07-23T03:37:09;25.35;52.15
73780;SHT30;62093;37.614;15.072;2022-07-23T03:39:36;25.36;52.19
73780;SHT30;62093;37.614;15.072;2022-07-23T03:42:02;25.33;52.17
73780;SHT30;62093;37.614;15.072;2022-07-23T03:44:28;25.33;52.20
73780;SHT30;62093;37.614;15.072;2022-07-23T03:46:54;25.35;52.15
73780;SHT30;62093;37.614;15.072;2022-07-23T03:49:19;25.32;52.05
73780;SHT30;62093;37.614;15.072;2022-07-23T03:51:46;25.35;51.94
73780;SHT30;62093;37.614;15.072;2022-07-23T03:54:12;25.35;51.96
73780;SHT30;62093;37.614;15.072;2022-07-23T03:56:38;25.33;52.16
73780;SHT30;62093;37.614;15.072;2022-07-23T03:59:04;25.32;52.21
73780;SHT30;62093;37.614;15.072;2022-07-23T04:01:31;25.32;51.83
73780;SHT30;62093;37.614;15.072;2022-07-23T04:03:58;25.32;52.02
73780;SHT30;62093;37.614;15.072;2022-07-23T04:06:24;25.32;51.95
73780;SHT30;62093;37.614;15.072;2022-07-23T04:08:52;25.33;51.71
73780;SHT30;62093;37.614;15.072;2022-07-23T04:11:18;25.32;51.86
73780;SHT30;62093;37.614;15.072;2022-07-23T04:13:44;25.32;51.85
73780;SHT30;62093;37.614;15.072;2022-07-23T04:16:11;25.30;52.02
73780;SHT30;62093;37.614;15.072;2022-07-23T04:18:37;25.30;51.99
73780;SHT30;62093;37.614;15.072;2022-07-23T04:21:12;25.33;51.83
73780;SHT30;62093;37.614;15.072;2022-07-23T04:23:38;25.29;51.78
73780;SHT30;62093;37.614;15.072;2022-07-23T04:26:05;25.32;51.93
73780;SHT30;62093;37.614;15.072;2022-07-23T04:28:31;25.32;51.92
73780;SHT30;62093;37.614;15.072;2022-07-23T04:30:58;25.33;51.82
73780;SHT30;62093;37.614;15.072;2022-07-23T04:33:24;25.32;51.64
73780;SHT30;62093;37.614;15.072;2022-07-23T04:35:53;25.30;51.72
73780;SHT30;62093;37.614;15.072;2022-07-23T04:38:19;25.33;51.85
73780;SHT30;62093;37.614;15.072;2022-07-23T04:40:48;25.35;51.76
73780;SHT30;62093;37.614;15.072;2022-07-23T04:43:15;25.33;51.75
73780;SHT30;62093;37.614;15.072;2022-07-23T04:45:47;25.33;51.69
73780;SHT30;62093;37.614;15.072;2022-07-23T04:48:12;25.30;51.66
73780;SHT30;62093;37.614;15.072;2022-07-23T04:50:38;25.32;51.86
73780;SHT30;62093;37.614;15.072;2022-07-23T04:53:05;25.33;51.82
73780;SHT30;62093;37.614;15.072;2022-07-23T04:55:31;25.33;51.93
73780;SHT30;62093;37.614;15.072;2022-07-23T04:57:57;25.35;51.91
73780;SHT30;62093;37.614;15.072;2022-07-23T05:00:23;25.30;51.90
73780;SHT30;62093;37.614;15.072;2022-07-23T05:02:49;25.35;52.05
73780;SHT30;62093;37.614;15.072;2022-07-23T05:05:16;25.35;52.07
73780;SHT30;62093;37.614;15.072;2022-07-23T05:07:44;25.36;51.96
73780;SHT30;62093;37.614;15.072;2022-07-23T05:10:10;25.35;52.08
73780;SHT30;62093;37.614;15.072;2022-07-23T05:12:36;25.35;52.12
73780;SHT30;62093;37.614;15.072;2022-07-23T05:15:02;25.36;51.97
73780;SHT30;62093;37.614;15.072;2022-07-23T05:17:28;25.36;52.12
73780;SHT30;62093;37.614;15.072;2022-07-23T05:19:54;25.36;52.07
73780;SHT30;62093;37.614;15.072;2022-07-23T05:22:20;25.36;52.24
73780;SHT30;62093;37.614;15.072;2022-07-23T05:24:45;25.38;52.25
73780;SHT30;62093;37.614;15.072;2022-07-23T05:27:12;25.38;52.23
73780;SHT30;62093;37.614;15.072;2022-07-23T05:29:38;25.38;52.31
73780;SHT30;62093;37.614;15.072;2022-07-23T05:32:04;25.40;52.18
73780;SHT30;62093;37.614;15.072;2022-07-23T05:34:32;25.40;52.15
73780;SHT30;62093;37.614;15.072;2022-07-23T05:36:59;25.38;52.15
73780;SHT30;62093;37.614;15.072;2022-07-23T05:39:25;25.38;52.19
73780;SHT30;62093;37.614;15.072;2022-07-23T05:41:51;25.42;52.20
73780;SHT30;62093;37.614;15.072;2022-07-23T05:44:16;25.43;52.26
73780;SHT30;62093;37.614;15.072;2022-07-23T05:46:44;25.40;52.34
73780;SHT30;62093;37.614;15.072;2022-07-23T05:49:14;25.43;52.37
73780;SHT30;62093;37.614;15.072;2022-07-23T05:51:58;25.45;52.48
73780;SHT30;62093;37.614;15.072;2022-07-23T05:54:45;25.43;52.54
73780;SHT30;62093;37.614;15.072;2022-07-23T05:57:11;25.43;52.48
73780;SHT30;62093;37.614;15.072;2022-07-23T05:59:37;25.43;52.49
73780;SHT30;62093;37.614;15.072;2022-07-23T06:02:03;25.43;52.56
73780;SHT30;62093;37.614;15.072;2022-07-23T06:04:29;25.45;52.60
73780;SHT30;62093;37.614;15.072;2022-07-23T06:07:13;25.45;52.63
73780;SHT30;62093;37.614;15.072;2022-07-23T06:09:39;25.45;52.67
73780;SHT30;62093;37.614;15.072;2022-07-23T06:12:05;25.45;52.68
73780;SHT30;62093;37.614;15.072;2022-07-23T06:14:31;25.43;52.72
73780;SHT30;62093;37.614;15.072;2022-07-23T06:16:58;25.45;52.69
73780;SHT30;62093;37.614;15.072;2022-07-23T06:19:26;25.47;52.69
73780;SHT30;62093;37.614;15.072;2022-07-23T06:21:52;25.47;52.73
73780;SHT30;62093;37.614;15.072;2022-07-23T06:24:18;25.46;52.70
73780;SHT30;62093;37.614;15.072;2022-07-23T06:26:44;25.49;52.74
73780;SHT30;62093;37.614;15.072;2022-07-23T06:29:10;25.46;52.79
73780;SHT30;62093;37.614;15.072;2022-07-23T06:31:36;25.46;52.73
73780;SHT30;62093;37.614;15.072;2022-07-23T06:34:02;25.47;52.73
73780;SHT30;62093;37.614;15.072;2022-07-23T06:36:28;25.46;52.69
73780;SHT30;62093;37.614;15.072;2022-07-23T06:38:54;25.49;52.71
73780;SHT30;62093;37.614;15.072;2022-07-23T06:41:20;25.47;52.77
73780;SHT30;62093;37.614;15.072;2022-07-23T06:43:48;25.49;52.72
73780;SHT30;62093;37.614;15.072;2022-07-23T06:46:15;25.49;52.70
73780;SHT30;62093;37.614;15.072;2022-07-23T06:48:42;25.50;52.79
73780;SHT30;62093;37.614;15.072;2022-07-23T06:51:08;25.51;52.77
73780;SHT30;62093;37.614;15.072;2022-07-23T06:53:34;25.50;52.73
73780;SHT30;62093;37.614;15.072;2022-07-23T06:56:00;25.53;52.77
73780;SHT30;62093;37.614;15.072;2022-07-23T06:58:26;25.51;52.76
73780;SHT30;62093;37.614;15.072;2022-07-23T07:00:52;25.53;52.66
73780;SHT30;62093;37.614;15.072;2022-07-23T07:03:19;25.54;52.74
73780;SHT30;62093;37.614;15.072;2022-07-23T07:05:45;25.54;52.70
73780;SHT30;62093;37.614;15.072;2022-07-23T07:08:11;25.54;52.69
73780;SHT30;62093;37.614;15.072;2022-07-23T07:10:37;25.56;52.63
73780;SHT30;62093;37.614;15.072;2022-07-23T07:13:03;25.53;52.77
73780;SHT30;62093;37.614;15.072;2022-07-23T07:15:29;25.53;52.70
73780;SHT30;62093;37.614;15.072;2022-07-23T07:17:54;25.57;52.72
73780;SHT30;62093;37.614;15.072;2022-07-23T07:20:20;25.54;52.63
73780;SHT30;62093;37.614;15.072;2022-07-23T07:22:46;25.56;52.70
73780;SHT30;62093;37.614;15.072;2022-07-23T07:25:12;25.56;52.68
73780;SHT30;62093;37.614;15.072;2022-07-23T07:27:38;25.57;52.64
73780;SHT30;62093;37.614;15.072;2022-07-23T07:30:04;25.56;52.67
73780;SHT30;62093;37.614;15.072;2022-07-23T07:32:30;25.57;52.61
73780;SHT30;62093;37.614;15.072;2022-07-23T07:34:58;25.59;52.73
73780;SHT30;62093;37.614;15.072;2022-07-23T07:37:24;25.57;52.53
73780;SHT30;62093;37.614;15.072;2022-07-23T07:39:50;25.63;52.61
73780;SHT30;62093;37.614;15.072;2022-07-23T07:42:16;25.59;52.58
73780;SHT30;62093;37.614;15.072;2022-07-23T07:44:41;25.56;52.71
73780;SHT30;62093;37.614;15.072;2022-07-23T07:47:07;25.59;52.57
73780;SHT30;62093;37.614;15.072;2022-07-23T07:49:33;25.59;52.72
73780;SHT30;62093;37.614;15.072;2022-07-23T07:51:59;25.60;52.51
73780;SHT30;62093;37.614;15.072;2022-07-23T07:54:25;25.59;52.63
73780;SHT30;62093;37.614;15.072;2022-07-23T07:56:51;25.60;52.54
73780;SHT30;62093;37.614;15.072;2022-07-23T07:59:16;25.60;52.62
73780;SHT30;62093;37.614;15.072;2022-07-23T08:01:42;25.60;52.59
73780;SHT30;62093;37.614;15.072;2022-07-23T08:04:08;25.62;52.66
73780;SHT30;62093;37.614;15.072;2022-07-23T08:06:34;25.62;52.47
73780;SHT30;62093;37.614;15.072;2022-07-23T08:09:00;25.60;52.49
73780;SHT30;62093;37.614;15.072;2022-07-23T08:11:26;25.62;52.62
73780;SHT30;62093;37.614;15.072;2022-07-23T08:13:52;25.62;52.48
73780;SHT30;62093;37.614;15.072;2022-07-23T08:16:18;25.62;52.60
73780;SHT30;62093;37.614;15.072;2022-07-23T08:18:43;25.63;52.57
73780;SHT30;62093;37.614;15.072;2022-07-23T08:21:09;25.66;52.58
73780;SHT30;62093;37.614;15.072;2022-07-23T08:23:35;25.65;52.52
73780;SHT30;62093;37.614;15.072;2022-07-23T08:26:01;25.67;52.44
73780;SHT30;62093;37.614;15.072;2022-07-23T08:28:27;25.67;52.42
73780;SHT30;62093;37.614;15.072;2022-07-23T08:30:53;25.63;52.55
73780;SHT30;62093;37.614;15.072;2022-07-23T08:33:19;25.66;52.47
73780;SHT30;62093;37.614;15.072;2022-07-23T08:35:47;25.67;52.43
73780;SHT30;62093;37.614;15.072;2022-07-23T08:38:16;25.66;52.35
73780;SHT30;62093;37.614;15.072;2022-07-23T08:40:48;25.67;52.48
73780;SHT30;62093;37.614;15.072;2022-07-23T08:43:18;25.66;52.41
73780;SHT30;62093;37.614;15.072;2022-07-23T08:45:47;25.67;52.43
73780;SHT30;62093;37.614;15.072;2022-07-23T08:48:18;25.69;52.42
73780;SHT30;62093;37.614;15.072;2022-07-23T08:50:49;25.69;52.32
73780;SHT30;62093;37.614;15.072;2022-07-23T08:53:17;25.70;52.35
73780;SHT30;62093;37.614;15.072;2022-07-23T08:55:44;25.69;52.30
73780;SHT30;62093;37.614;15.072;2022-07-23T08:58:11;25.73;52.31
73780;SHT30;62093;37.614;15.072;2022-07-23T09:00:37;25.70;52.30
73780;SHT30;62093;37.614;15.072;2022-07-23T09:03:03;25.73;52.29
73780;SHT30;62093;37.614;15.072;2022-07-23T09:05:29;25.73;52.37
73780;SHT30;62093;37.614;15.072;2022-07-23T09:10:55;25.71;52.23
73780;SHT30;62093;37.614;15.072;2022-07-23T09:15:51;25.76;52.24
73780;SHT30;62093;37.614;15.072;2022-07-23T09:18:17;25.76;52.27
73780;SHT30;62093;37.614;15.072;2022-07-23T09:20:44;25.76;52.25
73780;SHT30;62093;37.614;15.072;2022-07-23T09:23:10;25.76;52.17
73780;SHT30;62093;37.614;15.072;2022-07-23T09:25:36;25.76;52.28
73780;SHT30;62093;37.614;15.072;2022-07-23T09:28:02;25.76;52.16
73780;SHT30;62093;37.614;15.072;2022-07-23T09:30:32;25.76;52.17
73780;SHT30;62093;37.614;15.072;2022-07-23T09:33:12;25.80;52.07
73780;SHT30;62093;37.614;15.072;2022-07-23T09:35:53;25.76;52.04
73780;SHT30;62093;37.614;15.072;2022-07-23T09:38:21;25.77;52.11
73780;SHT30;62093;37.614;15.072;2022-07-23T09:41:05;25.76;52.14
73780;SHT30;62093;37.614;15.072;2022-07-23T09:43:31;25.80;52.13
73780;SHT30;62093;37.614;15.072;2022-07-23T09:46:24;25.80;52.00
73780;SHT30;62093;37.614;15.072;2022-07-23T09:48:54;25.83;52.04
73780;SHT30;62093;37.614;15.072;2022-07-23T09:51:22;25.81;51.98
73780;SHT30;62093;37.614;15.072;2022-07-23T09:54:02;25.80;52.03
73780;SHT30;62093;37.614;15.072;2022-07-23T09:56:28;25.83;52.05
73780;SHT30;62093;37.614;15.072;2022-07-23T09:58:54;25.84;52.00
73780;SHT30;62093;37.614;15.072;2022-07-23T10:01:40;25.83;51.97
73780;SHT30;62093;37.614;15.072;2022-07-23T10:04:07;25.83;51.98
73780;SHT30;62093;37.614;15.072;2022-07-23T10:06:53;25.86;52.03
73780;SHT30;62093;37.614;15.072;2022-07-23T10:09:39;25.84;51.98
73780;SHT30;62093;37.614;15.072;2022-07-23T10:12:38;25.87;52.01
73780;SHT30;62093;37.614;15.072;2022-07-23T10:15:17;25.84;51.96
73780;SHT30;62093;37.614;15.072;2022-07-23T10:17:43;25.87;51.96
73780;SHT30;62093;37.614;15.072;2022-07-23T10:20:09;25.86;51.97
73780;SHT30;62093;37.614;15.072;2022-07-23T10:22:37;25.84;51.89
73780;SHT30;62093;37.614;15.072;2022-07-23T10:31:03;25.88;51.90
73780;SHT30;62093;37.614;15.072;2022-07-23T10:36:20;25.88;51.86
73780;SHT30;62093;37.614;15.072;2022-07-23T10:39:18;25.91;51.90
73780;SHT30;62093;37.614;15.072;2022-07-23T10:41:45;25.88;51.90
73780;SHT30;62093;37.614;15.072;2022-07-23T10:44:13;25.94;51.84
73780;SHT30;62093;37.614;15.072;2022-07-23T10:46:59;25.91;51.86
73780;SHT30;62093;37.614;15.072;2022-07-23T10:49:44;25.93;51.99
73780;SHT30;62093;37.614;15.072;2022-07-23T10:52:24;25.93;51.86
73780;SHT30;62093;37.614;15.072;2022-07-23T10:54:56;25.91;51.86
73780;SHT30;62093;37.614;15.072;2022-07-23T10:57:25;25.91;51.86
73780;SHT30;62093;37.614;15.072;2022-07-23T11:02:28;25.97;51.85
73780;SHT30;62093;37.614;15.072;2022-07-23T11:04:59;25.96;51.80
73780;SHT30;62093;37.614;15.072;2022-07-23T11:07:26;25.93;51.87
73780;SHT30;62093;37.614;15.072;2022-07-23T11:09:52;25.96;51.84
73780;SHT30;62093;37.614;15.072;2022-07-23T11:15:07;25.97;51.80
73780;SHT30;62093;37.614;15.072;2022-07-23T11:17:40;25.97;51.75
73780;SHT30;62093;37.614;15.072;2022-07-23T11:20:23;26.00;51.77
73780;SHT30;62093;37.614;15.072;2022-07-23T11:22:55;26.00;51.79
73780;SHT30;62093;37.614;15.072;2022-07-23T11:27:49;25.98;51.78
73780;SHT30;62093;37.614;15.072;2022-07-23T11:32:55;26.01;51.70
73780;SHT30;62093;37.614;15.072;2022-07-23T11:36:01;26.02;51.67
73780;SHT30;62093;37.614;15.072;2022-07-23T11:38:30;26.00;51.70
73780;SHT30;62093;37.614;15.072;2022-07-23T11:40:57;26.02;51.75
73780;SHT30;62093;37.614;15.072;2022-07-23T11:43:24;26.04;51.65
73780;SHT30;62093;37.614;15.072;2022-07-23T11:45:56;26.04;51.71
73780;SHT30;62093;37.614;15.072;2022-07-23T11:48:25;26.04;51.70
73780;SHT30;62093;37.614;15.072;2022-07-23T11:50:53;26.04;51.64
73780;SHT30;62093;37.614;15.072;2022-07-23T11:53:29;26.04;51.65
73780;SHT30;62093;37.614;15.072;2022-07-23T11:56:06;26.08;51.61
73780;SHT30;62093;37.614;15.072;2022-07-23T11:58:32;26.07;51.59
73780;SHT30;62093;37.614;15.072;2022-07-23T12:00:58;26.07;51.66
73780;SHT30;62093;37.614;15.072;2022-07-23T12:03:24;26.07;51.63
73780;SHT30;62093;37.614;15.072;2022-07-23T12:05:56;26.05;51.61
73780;SHT30;62093;37.614;15.072;2022-07-23T12:08:22;26.08;51.57
73780;SHT30;62093;37.614;15.072;2022-07-23T12:10:48;26.10;51.58
73780;SHT30;62093;37.614;15.072;2022-07-23T12:13:19;26.10;51.57
73780;SHT30;62093;37.614;15.072;2022-07-23T12:15:48;26.13;51.57
73780;SHT30;62093;37.614;15.072;2022-07-23T12:18:20;26.10;51.55
73780;SHT30;62093;37.614;15.072;2022-07-23T12:20:52;26.13;51.51
73780;SHT30;62093;37.614;15.072;2022-07-23T12:23:19;26.13;51.54
73780;SHT30;62093;37.614;15.072;2022-07-23T12:25:48;26.14;51.51
73780;SHT30;62093;37.614;15.072;2022-07-23T12:28:17;26.11;51.60
73780;SHT30;62093;37.614;15.072;2022-07-23T12:30:51;26.14;51.49
73780;SHT30;62093;37.614;15.072;2022-07-23T12:35:56;26.16;51.49
73780;SHT30;62093;37.614;15.072;2022-07-23T12:38:23;26.13;51.49
73780;SHT30;62093;37.614;15.072;2022-07-23T12:40:57;26.17;51.44
73780;SHT30;62093;37.614;15.072;2022-07-23T12:46:04;26.18;51.46
73780;SHT30;62093;37.614;15.072;2022-07-23T12:51:17;26.18;51.39
73780;SHT30;62093;37.614;15.072;2022-07-23T12:53:49;26.20;51.38
73780;SHT30;62093;37.614;15.072;2022-07-23T12:56:20;26.17;51.36
73780;SHT30;62093;37.614;15.072;2022-07-23T12:58:49;26.20;51.41
73780;SHT30;62093;37.614;15.072;2022-07-23T13:04:04;26.24;51.32
73780;SHT30;62093;37.614;15.072;2022-07-23T13:06:39;26.24;51.39
73780;SHT30;62093;37.614;15.072;2022-07-23T13:09:07;26.25;51.34
73780;SHT30;62093;37.614;15.072;2022-07-23T13:11:33;26.25;51.30
73780;SHT30;62093;37.614;15.072;2022-07-23T13:13:59;26.24;51.33
73780;SHT30;62093;37.614;15.072;2022-07-23T13:16:29;26.24;51.28
73780;SHT30;62093;37.614;15.072;2022-07-23T13:18:56;26.24;51.28
73780;SHT30;62093;37.614;15.072;2022-07-23T13:21:25;26.27;51.31
73780;SHT30;62093;37.614;15.072;2022-07-23T13:23:51;26.25;51.28
73780;SHT30;62093;37.614;15.072;2022-07-23T13:26:17;26.27;51.28
73780;SHT30;62093;37.614;15.072;2022-07-23T13:28:43;26.27;51.28
73780;SHT30;62093;37.614;15.072;2022-07-23T13:31:09;26.31;51.24
73780;SHT30;62093;37.614;15.072;2022-07-23T13:33:35;26.31;51.23
73780;SHT30;62093;37.614;15.072;2022-07-23T13:36:01;26.31;51.23
73780;SHT30;62093;37.614;15.072;2022-07-23T13:38:28;26.31;51.24
73780;SHT30;62093;37.614;15.072;2022-07-23T13:40:54;26.29;51.24
73780;SHT30;62093;37.614;15.072;2022-07-23T13:43:22;26.34;51.22
73780;SHT30;62093;37.614;15.072;2022-07-23T13:45:50;26.32;51.17
73780;SHT30;62093;37.614;15.072;2022-07-23T13:48:17;26.32;51.24
73780;SHT30;62093;37.614;15.072;2022-07-23T13:50:44;26.34;51.17
73780;SHT30;62093;37.614;15.072;2022-07-23T13:53:15;26.32;51.13
73780;SHT30;62093;37.614;15.072;2022-07-23T13:55:42;26.32;51.16
73780;SHT30;62093;37.614;15.072;2022-07-23T13:58:09;26.38;51.11
73780;SHT30;62093;37.614;15.072;2022-07-23T14:00:41;26.37;51.08
73780;SHT30;62093;37.614;15.072;2022-07-23T14:03:08;26.37;51.14
73780;SHT30;62093;37.614;15.072;2022-07-23T14:05:34;26.38;51.06
73780;SHT30;62093;37.614;15.072;2022-07-23T14:08:01;26.39;51.09
73780;SHT30;62093;37.614;15.072;2022-07-23T14:10:27;26.38;51.06
73780;SHT30;62093;37.614;15.072;2022-07-23T14:12:53;26.39;51.11
73780;SHT30;62093;37.614;15.072;2022-07-23T14:15:22;26.44;51.01
73780;SHT30;62093;37.614;15.072;2022-07-23T14:17:48;26.39;51.06
73780;SHT30;62093;37.614;15.072;2022-07-23T14:20:15;26.44;51.04
73780;SHT30;62093;37.614;15.072;2022-07-23T14:22:41;26.44;50.99
73780;SHT30;62093;37.614;15.072;2022-07-23T14:25:08;26.42;51.03
73780;SHT30;62093;37.614;15.072;2022-07-23T14:27:34;26.42;50.97
73780;SHT30;62093;37.614;15.072;2022-07-23T14:30:01;26.45;50.97
73780;SHT30;62093;37.614;15.072;2022-07-23T14:32:27;26.44;51.01
73780;SHT30;62093;37.614;15.072;2022-07-23T14:34:53;26.45;50.95
73780;SHT30;62093;37.614;15.072;2022-07-23T14:37:19;26.47;50.94
73780;SHT30;62093;37.614;15.072;2022-07-23T14:39:45;26.47;50.90
73780;SHT30;62093;37.614;15.072;2022-07-23T14:42:12;26.45;50.99
73780;SHT30;62093;37.614;15.072;2022-07-23T14:44:38;26.48;50.96
73780;SHT30;62093;37.614;15.072;2022-07-23T14:47:05;26.45;50.95
73780;SHT30;62093;37.614;15.072;2022-07-23T14:49:32;26.45;51.01
73780;SHT30;62093;37.614;15.072;2022-07-23T14:51:58;26.45;51.03
73780;SHT30;62093;37.614;15.072;2022-07-23T14:54:25;26.45;50.99
73780;SHT30;62093;37.614;15.072;2022-07-23T14:56:53;26.44;51.03
73780;SHT30;62093;37.614;15.072;2022-07-23T14:59:19;26.42;51.04
73780;SHT30;62093;37.614;15.072;2022-07-23T15:01:45;26.42;51.04
73780;SHT30;62093;37.614;15.072;2022-07-23T15:04:12;26.44;51.06
73780;SHT30;62093;37.614;15.072;2022-07-23T15:06:38;26.42;51.14
73780;SHT30;62093;37.614;15.072;2022-07-23T15:09:05;26.42;51.03
73780;SHT30;62093;37.614;15.072;2022-07-23T15:11:31;26.42;51.04
73780;SHT30;62093;37.614;15.072;2022-07-23T15:14:00;26.44;51.03
73780;SHT30;62093;37.614;15.072;2022-07-23T15:16:27;26.42;51.05
73780;SHT30;62093;37.614;15.072;2022-07-23T15:18:53;26.41;51.05
73780;SHT30;62093;37.614;15.072;2022-07-23T15:21:20;26.38;51.08
73780;SHT30;62093;37.614;15.072;2022-07-23T15:23:46;26.41;51.13
73780;SHT30;62093;37.614;15.072;2022-07-23T15:26:12;26.37;51.16
73780;SHT30;62093;37.614;15.072;2022-07-23T15:28:40;26.39;51.21
73780;SHT30;62093;37.614;15.072;2022-07-23T15:31:06;26.49;51.20
73780;SHT30;62093;37.614;15.072;2022-07-23T15:33:32;26.76;50.72
73780;SHT30;62093;37.614;15.072;2022-07-23T15:35:58;27.13;49.84
73780;SHT30;62093;37.614;15.072;2022-07-23T15:38:25;27.48;49.02
73780;SHT30;62093;37.614;15.072;2022-07-23T15:40:55;27.78;48.48
73780;SHT30;62093;37.614;15.072;2022-07-23T15:43:23;27.91;47.83
73780;SHT30;62093;37.614;15.072;2022-07-23T15:45:50;27.55;48.04
73780;SHT30;62093;37.614;15.072;2022-07-23T15:48:15;27.14;49.08
73780;SHT30;62093;37.614;15.072;2022-07-23T15:50:42;26.90;49.65
73780;SHT30;62093;37.614;15.072;2022-07-23T15:53:08;26.75;49.99
73780;SHT30;62093;37.614;15.072;2022-07-23T15:55:34;26.72;50.16
73780;SHT30;62093;37.614;15.072;2022-07-23T15:58:00;26.63;50.36